sensor_id;sensor_type;location;lat;lon;timestamp;temperature;humidity
3980;DHT22;2004;52.452;13.120;2023-04-09T00:06:02;5.20;99.90
3980;DHT22;2004;52.452;13.120;2023-04-09T00:13:52;5.00;99.90
3980;DHT22;2004;52.452;13.120;2023-04-09T00:21:44;4.90;99.90
3980;DHT22;2004;52.452;13.120;2023-04-09T00:29:35;4.80;99.90
3980;DHT22;2004;52.452;13.120;2023-04-09T00:37:26;4.60;99.90
3980;DHT22;2004;52.452;13.120;2023-04-09T00:45:16;4.60;99.90
3980;DHT22;2004;52.452;13.120;2023-04-09T00:53:08;4.40;99.90
3980;DHT22;2004;52.452;13.120;2023-04-09T01:00:59;4.20;99.90
3980;DHT22;2004;52.452;13.120;2023-04-09T01:33:43;3.80;99.90
3980;DHT22;2004;52.452;13.120;2023-04-09T01:41:36;3.70;99.90
3980;DHT22;2004;52.452;13.120;2023-04-09T01:49:27;3.60;99.90
3980;DHT22;2004;52.452;13.120;2023-04-09T01:57:22;3.50;99.90
3980;DHT22;2004;52.452;13.120;2023-04-09T02:05:19;3.40;99.90
3980;DHT22;2004;52.452;13.120;2023-04-09T02:13:14;3.20;99.90
3980;DHT22;2004;52.452;13.120;2023-04-09T02:21:06;3.20;99.90
3980;DHT22;2004;52.452;13.120;2023-04-09T02:29:02;3.10;99.90
3980;DHT22;2004;52.452;13.120;2023-04-09T02:36:53;3.10;99.90
3980;DHT22;2004;52.452;13.120;2023-04-09T02:44:43;3.00;99.90
3980;DHT22;2004;52.452;13.120;2023-04-09T02:52:46;2.90;99.90
3980;DHT22;2004;52.452;13.120;2023-04-09T03:00:37;2.90;99.90
3980;DHT22;2004;52.452;13.120;2023-04-09T03:08:46;2.80;99.90
3980;DHT22;2004;52.452;13.120;2023-04-09T03:16:38;2.70;99.90
3980;DHT22;2004;52.452;13.120;2023-04-09T03:24:31;2.60;99.90
3980;DHT22;2004;52.452;13.120;2023-04-09T03:32:22;2.50;99.90
3980;DHT22;2004;52.452;13.120;2023-04-09T03:48:09;2.30;99.90
3980;DHT22;2004;52.452;13.120;2023-04-09T03:55:59;2.20;99.90
3980;DHT22;2004;52.452;13.120;2023-04-09T04:03:51;2.10;99.90
3980;DHT22;2004;52.452;13.120;2023-04-09T04:11:41;2.00;99.90
3980;DHT22;2004;52.452;13.120;2023-04-09T04:19:32;2.00;99.90
3980;DHT22;2004;52.452;13.120;2023-04-09T04:27:22;1.90;99.90
3980;DHT22;2004;52.452;13.120;2023-04-09T04:35:13;1.80;99.90
3980;DHT22;2004;52.452;13.120;2023-04-09T04:43:04;1.80;99.90
3980;DHT22;2004;52.452;13.120;2023-04-09T04:50:57;1.70;99.90
3980;DHT22;2004;52.452;13.120;2023-04-09T04:58:48;1.60;99.90
3980;DHT22;2004;52.452;13.120;2023-04-09T05:06:39;1.60;99.90
3980;DHT22;2004;52.452;13.120;2023-04-09T05:14:29;1.70;99.90
3980;DHT22;2004;52.452;13.120;2023-04-09T05:22:20;1.60;99.90
3980;DHT22;2004;52.452;13.120;2023-04-09T05:30:12;1.70;99.90
3980;DHT22;2004;52.452;13.120;2023-04-09T05:38:02;1.70;99.90
3980;DHT22;2004;52.452;13.120;2023-04-09T05:45:53;1.80;99.90
3980;DHT22;2004;52.452;13.120;2023-04-09T05:53:44;1.80;99.90
3980;DHT22;2004;52.452;13.120;2023-04-09T06:01:36;1.80;99.90
3980;DHT22;2004;52.452;13.120;2023-04-09T06:09:26;1.90;99.90
3980;DHT22;2004;52.452;13.120;2023-04-09T06:17:19;2.10;99.90
3980;DHT22;2004;52.452;13.120;2023-04-09T06:25:10;2.10;99.90
3980;DHT22;2004;52.452;13.120;2023-04-09T06:33:00;2.10;99.90
3980;DHT22;2004;52.452;13.120;2023-04-09T06:40:51;2.30;99.90
3980;DHT22;2004;52.452;13.120;2023-04-09T06:48:43;2.40;99.90
3980;DHT22;2004;52.452;13.120;2023-04-09T06:56:34;2.50;99.90
3980;DHT22;2004;52.452;13.120;2023-04-09T07:04:24;2.70;99.90
3980;DHT22;2004;52.452;13.120;2023-04-09T07:12:28;2.80;99.90
3980;DHT22;2004;52.452;13.120;2023-04-09T07:20:20;2.90;99.90
3980;DHT22;2004;52.452;13.120;2023-04-09T07:28:10;3.10;99.90
3980;DHT22;2004;52.452;13.120;2023-04-09T07:36:02;3.20;99.90
3980;DHT22;2004;52.452;13.120;2023-04-09T07:43:52;3.30;99.90
3980;DHT22;2004;52.452;13.120;2023-04-09T07:51:43;3.60;99.90
3980;DHT22;2004;52.452;13.120;2023-04-09T07:59:35;3.70;99.90
3980;DHT22;2004;52.452;13.120;2023-04-09T08:07:25;3.80;99.90
3980;DHT22;2004;52.452;13.120;2023-04-09T08:15:16;3.80;99.90
3980;DHT22;2004;52.452;13.120;2023-04-09T08:23:07;4.10;99.90
3980;DHT22;2004;52.452;13.120;2023-04-09T08:30:57;4.40;99.90
3980;DHT22;2004;52.452;13.120;2023-04-09T08:38:48;4.70;99.90
3980;DHT22;2004;52.452;13.120;2023-04-09T08:46:38;4.90;99.90
3980;DHT22;2004;52.452;13.120;2023-04-09T08:54:30;5.10;99.90
3980;DHT22;2004;52.452;13.120;2023-04-09T09:02:21;5.30;99.90
3980;DHT22;2004;52.452;13.120;2023-04-09T09:10:13;5.50;99.90
3980;DHT22;2004;52.452;13.120;2023-04-09T09:18:03;5.70;99.90
3980;DHT22;2004;52.452;13.120;2023-04-09T09:25:55;6.00;99.90
3980;DHT22;2004;52.452;13.120;2023-04-09T09:33:46;6.20;99.90
3980;DHT22;2004;52.452;13.120;2023-04-09T09:41:38;6.50;99.90
3980;DHT22;2004;52.452;13.120;2023-04-09T09:49:33;6.60;99.90
3980;DHT22;2004;52.452;13.120;2023-04-09T09:57:24;6.70;99.90
3980;DHT22;2004;52.452;13.120;2023-04-09T10:05:16;6.90;99.90
3980;DHT22;2004;52.452;13.120;2023-04-09T10:13:12;7.10;99.90
3980;DHT22;2004;52.452;13.120;2023-04-09T10:21:08;7.40;99.90
3980;DHT22;2004;52.452;13.120;2023-04-09T10:29:06;7.60;99.90
3980;DHT22;2004;52.452;13.120;2023-04-09T10:36:58;7.90;99.90
3980;DHT22;2004;52.452;13.120;2023-04-09T10:45:12;8.20;99.90
3980;DHT22;2004;52.452;13.120;2023-04-09T10:53:03;8.40;99.90
3980;DHT22;2004;52.452;13.120;2023-04-09T11:00:54;8.60;99.90
3980;DHT22;2004;52.452;13.120;2023-04-09T11:08:47;8.90;99.90
3980;DHT22;2004;52.452;13.120;2023-04-09T11:16:37;9.10;99.90
3980;DHT22;2004;52.452;13.120;2023-04-09T11:24:39;9.30;99.90
3980;DHT22;2004;52.452;13.120;2023-04-09T11:32:31;9.50;99.90
3980;DHT22;2004;52.452;13.120;2023-04-09T11:40:26;9.60;99.90
3980;DHT22;2004;52.452;13.120;2023-04-09T11:48:18;9.80;99.90
3980;DHT22;2004;52.452;13.120;2023-04-09T11:56:10;9.90;99.90
3980;DHT22;2004;52.452;13.120;2023-04-09T12:04:01;10.10;99.90
3980;DHT22;2004;52.452;13.120;2023-04-09T12:11:52;10.30;99.90
3980;DHT22;2004;52.452;13.120;2023-04-09T12:19:43;10.60;99.90
3980;DHT22;2004;52.452;13.120;2023-04-09T12:27:34;10.70;99.90
3980;DHT22;2004;52.452;13.120;2023-04-09T12:35:25;10.90;99.90
3980;DHT22;2004;52.452;13.120;2023-04-09T12:43:16;11.10;99.90
3980;DHT22;2004;52.452;13.120;2023-04-09T12:51:06;11.20;99.90
3980;DHT22;2004;52.452;13.120;2023-04-09T12:58:58;11.30;99.90
3980;DHT22;2004;52.452;13.120;2023-04-09T13:06:48;11.40;99.90
3980;DHT22;2004;52.452;13.120;2023-04-09T13:14:41;11.50;99.90
3980;DHT22;2004;52.452;13.120;2023-04-09T13:22:32;11.50;99.20
3980;DHT22;2004;52.452;13.120;2023-04-09T13:30:22;11.60;96.40
3980;DHT22;2004;52.452;13.120;2023-04-09T13:38:13;11.70;96.50
3980;DHT22;2004;52.452;13.120;2023-04-09T13:46:03;11.90;96.40
3980;DHT22;2004;52.452;13.120;2023-04-09T13:53:54;11.90;92.90
3980;DHT22;2004;52.452;13.120;2023-04-09T14:01:45;12.00;90.60
3980;DHT22;2004;52.452;13.120;2023-04-09T14:09:35;12.10;87.40
3980;DHT22;2004;52.452;13.120;2023-04-09T14:17:26;12.30;88.40
3980;DHT22;2004;52.452;13.120;2023-04-09T14:25:16;12.40;85.80
3980;DHT22;2004;52.452;13.120;2023-04-09T14:33:07;12.40;87.90
3980;DHT22;2004;52.452;13.120;2023-04-09T14:40:58;12.30;88.70
3980;DHT22;2004;52.452;13.120;2023-04-09T14:48:48;12.30;86.30
3980;DHT22;2004;52.452;13.120;2023-04-09T14:56:39;12.30;84.60
3980;DHT22;2004;52.452;13.120;2023-04-09T15:04:29;12.30;81.10
3980;DHT22;2004;52.452;13.120;2023-04-09T15:12:20;12.30;78.40
3980;DHT22;2004;52.452;13.120;2023-04-09T15:20:10;12.30;78.10
3980;DHT22;2004;52.452;13.120;2023-04-09T15:28:04;12.30;81.30
3980;DHT22;2004;52.452;13.120;2023-04-09T15:35:57;12.30;81.10
3980;DHT22;2004;52.452;13.120;2023-04-09T15:43:51;12.30;82.00
3980;DHT22;2004;52.452;13.120;2023-04-09T15:51:42;12.40;87.80
3980;DHT22;2004;52.452;13.120;2023-04-09T15:59:34;12.40;88.40
3980;DHT22;2004;52.452;13.120;2023-04-09T16:07:25;12.40;87.10
3980;DHT22;2004;52.452;13.120;2023-04-09T16:15:16;12.50;86.80
3980;DHT22;2004;52.452;13.120;2023-04-09T16:23:06;12.50;90.00
3980;DHT22;2004;52.452;13.120;2023-04-09T16:30:58;12.40;90.10
3980;DHT22;2004;52.452;13.120;2023-04-09T16:38:49;12.40;88.70
3980;DHT22;2004;52.452;13.120;2023-04-09T16:46:39;12.40;87.70
3980;DHT22;2004;52.452;13.120;2023-04-09T16:54:30;12.40;87.30
3980;DHT22;2004;52.452;13.120;2023-04-09T17:02:22;12.30;90.00
3980;DHT22;2004;52.452;13.120;2023-04-09T17:10:13;12.10;90.90
3980;DHT22;2004;52.452;13.120;2023-04-09T17:18:04;11.90;91.10
3980;DHT22;2004;52.452;13.120;2023-04-09T17:25:54;11.70;92.10
3980;DHT22;2004;52.452;13.120;2023-04-09T17:33:46;11.60;92.80
3980;DHT22;2004;52.452;13.120;2023-04-09T17:41:37;11.40;93.30
3980;DHT22;2004;52.452;13.120;2023-04-09T17:49:29;11.20;93.90
3980;DHT22;2004;52.452;13.120;2023-04-09T17:57:21;11.00;94.80
3980;DHT22;2004;52.452;13.120;2023-04-09T18:05:11;10.90;94.90
3980;DHT22;2004;52.452;13.120;2023-04-09T18:13:02;10.70;95.50
3980;DHT22;2004;52.452;13.120;2023-04-09T18:20:53;10.50;95.80
3980;DHT22;2004;52.452;13.120;2023-04-09T18:28:43;10.30;96.20
3980;DHT22;2004;52.452;13.120;2023-04-09T18:36:34;10.10;96.70
3980;DHT22;2004;52.452;13.120;2023-04-09T18:44:24;10.00;97.30
3980;DHT22;2004;52.452;13.120;2023-04-09T18:52:15;9.70;99.10
3980;DHT22;2004;52.452;13.120;2023-04-09T19:00:06;9.50;99.70
3980;DHT22;2004;52.452;13.120;2023-04-09T19:08:01;9.30;99.90
3980;DHT22;2004;52.452;13.120;2023-04-09T19:15:52;9.20;99.90
3980;DHT22;2004;52.452;13.120;2023-04-09T19:23:42;9.00;99.90
3980;DHT22;2004;52.452;13.120;2023-04-09T19:31:34;8.80;99.90
3980;DHT22;2004;52.452;13.120;2023-04-09T19:39:26;8.60;99.90
3980;DHT22;2004;52.452;13.120;2023-04-09T19:47:17;8.40;99.90
3980;DHT22;2004;52.452;13.120;2023-04-09T19:55:08;8.30;99.90
3980;DHT22;2004;52.452;13.120;2023-04-09T20:02:59;8.20;99.90
3980;DHT22;2004;52.452;13.120;2023-04-09T20:10:49;7.90;99.90
3980;DHT22;2004;52.452;13.120;2023-04-09T20:18:40;7.80;99.90
3980;DHT22;2004;52.452;13.120;2023-04-09T20:26:31;7.60;99.90
3980;DHT22;2004;52.452;13.120;2023-04-09T20:34:21;7.50;99.90
3980;DHT22;2004;52.452;13.120;2023-04-09T20:42:16;7.30;99.90
3980;DHT22;2004;52.452;13.120;2023-04-09T20:50:09;7.20;99.90
3980;DHT22;2004;52.452;13.120;2023-04-09T20:58:00;7.10;99.90
3980;DHT22;2004;52.452;13.120;2023-04-09T21:05:52;6.90;99.90
3980;DHT22;2004;52.452;13.120;2023-04-09T21:13:42;6.80;99.90
3980;DHT22;2004;52.452;13.120;2023-04-09T21:21:35;6.70;99.90
3980;DHT22;2004;52.452;13.120;2023-04-09T21:29:26;6.60;99.90
3980;DHT22;2004;52.452;13.120;2023-04-09T21:37:18;6.40;99.90
3980;DHT22;2004;52.452;13.120;2023-04-09T21:45:09;6.30;99.90
3980;DHT22;2004;52.452;13.120;2023-04-09T21:53:00;6.20;99.90
3980;DHT22;2004;52.452;13.120;2023-04-09T22:00:52;6.20;99.90
3980;DHT22;2004;52.452;13.120;2023-04-09T22:08:44;6.10;99.90
3980;DHT22;2004;52.452;13.120;2023-04-09T22:16:37;5.90;99.90
3980;DHT22;2004;52.452;13.120;2023-04-09T22:24:27;5.80;99.90
3980;DHT22;2004;52.452;13.120;2023-04-09T22:32:19;5.70;99.90
3980;DHT22;2004;52.452;13.120;2023-04-09T22:40:10;5.60;99.90
3980;DHT22;2004;52.452;13.120;2023-04-09T22:48:03;5.60;99.90
3980;DHT22;2004;52.452;13.120;2023-04-09T22:55:57;5.50;99.90
3980;DHT22;2004;52.452;13.120;2023-04-09T23:03:48;5.40;99.90
3980;DHT22;2004;52.452;13.120;2023-04-09T23:11:39;5.30;99.90
3980;DHT22;2004;52.452;13.120;2023-04-09T23:19:30;5.20;99.90
3980;DHT22;2004;52.452;13.120;2023-04-09T23:27:20;5.10;99.90
3980;DHT22;2004;52.452;13.120;2023-04-09T23:35:17;5.10;99.90
3980;DHT22;2004;52.452;13.120;2023-04-09T23:43:10;5.00;99.90
3980;DHT22;2004;52.452;13.120;2023-04-09T23:51:00;4.90;99.90
3980;DHT22;2004;52.452;13.120;2023-04-09T23:58:51;4.80;99.90
